Time;durP1;ratioP1;P1;durP2;ratioP2;P2;SDS_P1;SDS_P2;PMS_P1;PMS_P2;Temp;Humidity;BMP_temperature;BMP_pressure;BME280_temperature;BME280_humidity;BME280_pressure;Samples;Min_cycle;Max_cycle;Signal;HPM_P1;HPM_P2
2022/09/14 00:00:38;;;;;;;;;;;14.70;99.90;;;;;;5083967;28;19923;-75
2022/09/14 00:03:06;;;;;;;;;;;14.70;99.90;;;;;;5086195;28;19916;-75
2022/09/14 00:05:33;;;;;;;;;;;14.70;99.90;;;;;;5107419;28;20045;-75
2022/09/14 00:07:58;;;;;;;;;;;14.80;99.90;;;;;;5105675;28;19943;-74
2022/09/14 00:10:24;;;;;;;;;;;14.80;99.90;;;;;;5079720;28;20484;-74
2022/09/14 00:12:49;;;;;;;;;;;14.80;99.90;;;;;;5102711;28;19996;-74
2022/09/14 00:15:15;;;;;;;;;;;14.80;99.90;;;;;;5085514;28;19912;-74
2022/09/14 00:17:40;;;;;;;;;;;14.80;99.90;;;;;;5103837;28;19916;-74
2022/09/14 00:20:06;;;;;;;;;;;14.80;99.90;;;;;;5095579;28;20329;-74
2022/09/14 00:22:32;;;;;;;;;;;14.70;99.90;;;;;;5099106;28;20331;-75
2022/09/14 00:24:57;;;;;;;;;;;14.70;99.90;;;;;;5095641;28;19912;-74
2022/09/14 00:27:23;;;;;;;;;;;14.70;99.90;;;;;;5099735;28;19920;-75
2022/09/14 00:29:48;;;;;;;;;;;14.60;99.90;;;;;;5084602;28;19912;-73
2022/09/14 00:32:14;;;;;;;;;;;14.60;99.90;;;;;;5088248;28;19961;-73
2022/09/14 00:34:39;;;;;;;;;;;14.60;99.90;;;;;;5099248;28;19966;-74
2022/09/14 00:37:05;;;;;;;;;;;14.70;99.90;;;;;;5103520;28;19924;-73
2022/09/14 00:39:30;;;;;;;;;;;14.50;99.90;;;;;;5082009;28;20370;-74
2022/09/14 00:41:56;;;;;;;;;;;14.60;99.90;;;;;;5104957;28;19984;-74
2022/09/14 00:44:21;;;;;;;;;;;14.60;99.90;;;;;;5102700;28;19919;-74
2022/09/14 00:46:49;;;;;;;;;;;14.60;99.90;;;;;;5099447;28;20376;-74
2022/09/14 00:49:14;;;;;;;;;;;14.60;99.90;;;;;;5105704;28;19915;-74
2022/09/14 00:51:44;;;;;;;;;;;14.60;99.90;;;;;;5079927;28;19968;-74
2022/09/14 00:54:10;;;;;;;;;;;14.70;99.90;;;;;;5107078;28;19923;-74
2022/09/14 00:56:36;;;;;;;;;;;14.80;99.90;;;;;;5103096;28;19920;-74
2022/09/14 00:59:05;;;;;;;;;;;14.80;99.90;;;;;;5103657;28;20007;-74
2022/09/14 01:01:30;;;;;;;;;;;14.80;99.90;;;;;;5105689;28;19912;-74
2022/09/14 01:03:56;;;;;;;;;;;14.70;99.90;;;;;;5101129;28;20368;-74
2022/09/14 01:06:45;;;;;;;;;;;14.70;99.90;;;;;;5101747;28;19916;-77
2022/09/14 01:09:11;;;;;;;;;;;14.60;99.90;;;;;;5110262;28;20324;-76
2022/09/14 01:11:37;;;;;;;;;;;14.70;99.90;;;;;;5101516;28;19912;-74
2022/09/14 01:14:11;;;;;;;;;;;14.60;99.90;;;;;;5104571;28;19911;-74
2022/09/14 01:16:40;;;;;;;;;;;14.60;99.90;;;;;;5083381;28;19965;-74
2022/09/14 01:19:13;;;;;;;;;;;14.60;99.90;;;;;;5096321;28;19928;-74
2022/09/14 01:21:41;;;;;;;;;;;14.60;99.90;;;;;;5079608;28;20380;-74
2022/09/14 01:24:26;;;;;;;;;;;14.60;99.90;;;;;;5099681;28;19912;-74
2022/09/14 01:26:54;;;;;;;;;;;14.60;99.90;;;;;;5084381;28;19920;-76
2022/09/14 01:29:31;;;;;;;;;;;14.60;99.90;;;;;;5083526;28;19919;-76
2022/09/14 01:32:06;;;;;;;;;;;14.70;99.90;;;;;;5092854;28;19912;-77
2022/09/14 01:34:38;;;;;;;;;;;14.70;99.90;;;;;;5099272;28;20286;-76
2022/09/14 01:37:11;;;;;;;;;;;14.70;99.90;;;;;;5094036;28;19915;-76
2022/09/14 01:39:41;;;;;;;;;;;14.60;99.90;;;;;;5085253;28;19912;-77
2022/09/14 01:42:08;;;;;;;;;;;14.70;99.90;;;;;;5092124;28;19908;-76
2022/09/14 01:44:36;;;;;;;;;;;14.80;99.90;;;;;;5084367;28;20314;-75
2022/09/14 01:47:09;;;;;;;;;;;14.70;99.90;;;;;;5109824;28;20010;-76
2022/09/14 01:49:43;;;;;;;;;;;14.80;99.90;;;;;;5089389;28;20275;-76
2022/09/14 01:52:23;;;;;;;;;;;14.70;99.90;;;;;;5114070;28;20350;-76
2022/09/14 01:54:54;;;;;;;;;;;14.70;99.90;;;;;;5110772;28;19922;-76
2022/09/14 01:57:19;;;;;;;;;;;14.70;99.90;;;;;;5100797;28;19931;-75
2022/09/14 01:59:46;;;;;;;;;;;14.70;99.90;;;;;;5109401;28;19908;-75
2022/09/14 02:02:15;;;;;;;;;;;14.70;99.90;;;;;;5084641;28;19915;-75
2022/09/14 02:04:47;;;;;;;;;;;14.70;99.90;;;;;;5092097;28;19908;-75
2022/09/14 02:07:13;;;;;;;;;;;14.70;99.90;;;;;;5094306;28;19947;-76
2022/09/14 02:09:39;;;;;;;;;;;14.70;99.90;;;;;;5111440;28;20033;-75
2022/09/14 02:12:04;;;;;;;;;;;14.60;99.90;;;;;;5091829;28;19915;-76
2022/09/14 02:14:30;;;;;;;;;;;14.70;99.90;;;;;;5096692;28;19916;-76
2022/09/14 02:16:56;;;;;;;;;;;14.60;99.90;;;;;;5100145;28;20214;-75
2022/09/14 02:19:23;;;;;;;;;;;14.60;99.90;;;;;;5108920;28;19924;-76
2022/09/14 02:21:48;;;;;;;;;;;14.60;99.90;;;;;;5098520;28;20259;-76
2022/09/14 02:24:14;;;;;;;;;;;14.60;99.90;;;;;;5101912;28;19966;-75
2022/09/14 02:26:40;;;;;;;;;;;14.70;99.90;;;;;;5096147;28;19955;-76
2022/09/14 02:29:06;;;;;;;;;;;14.60;99.90;;;;;;5112867;28;19946;-76
2022/09/14 02:31:34;;;;;;;;;;;14.60;99.90;;;;;;5112032;28;19916;-75
2022/09/14 02:34:00;;;;;;;;;;;14.60;99.90;;;;;;5093436;28;19976;-75
2022/09/14 02:36:34;;;;;;;;;;;14.70;99.90;;;;;;5094033;28;20291;-77
2022/09/14 02:39:03;;;;;;;;;;;14.70;99.90;;;;;;5092625;28;19923;-77
2022/09/14 02:41:44;;;;;;;;;;;14.70;99.90;;;;;;5108422;28;19916;-76
2022/09/14 02:44:29;;;;;;;;;;;14.70;99.90;;;;;;5093612;28;20212;-76
2022/09/14 02:46:58;;;;;;;;;;;14.70;99.90;;;;;;5108036;28;19919;-76
2022/09/14 02:49:32;;;;;;;;;;;14.80;99.90;;;;;;5106786;28;20204;-77
2022/09/14 02:52:12;;;;;;;;;;;14.70;99.90;;;;;;5090345;28;19912;-77
2022/09/14 02:55:07;;;;;;;;;;;14.70;99.90;;;;;;5100060;28;19960;-76
2022/09/14 02:57:52;;;;;;;;;;;14.60;99.90;;;;;;5091458;28;19926;-76
2022/09/14 03:00:18;;;;;;;;;;;14.60;99.90;;;;;;5109682;28;19916;-76
2022/09/14 03:02:44;;;;;;;;;;;14.70;99.90;;;;;;5088431;28;19920;-77
2022/09/14 03:05:10;;;;;;;;;;;14.70;99.90;;;;;;5106761;28;20222;-77
2022/09/14 03:07:35;;;;;;;;;;;14.70;99.90;;;;;;5110676;28;20362;-77
2022/09/14 03:10:01;;;;;;;;;;;14.80;99.90;;;;;;5099648;28;20006;-76
2022/09/14 03:12:26;;;;;;;;;;;14.80;99.90;;;;;;5117733;28;19943;-76
2022/09/14 03:14:52;;;;;;;;;;;14.90;99.90;;;;;;5114114;28;19968;-76
2022/09/14 03:17:17;;;;;;;;;;;14.80;99.90;;;;;;5109191;28;19966;-76
2022/09/14 03:19:43;;;;;;;;;;;14.80;99.90;;;;;;5102848;28;19974;-75
2022/09/14 03:22:08;;;;;;;;;;;14.70;99.90;;;;;;5115770;28;19912;-76
2022/09/14 03:24:35;;;;;;;;;;;14.70;99.90;;;;;;5107490;28;19939;-76
2022/09/14 03:27:00;;;;;;;;;;;14.70;99.90;;;;;;5098466;28;19994;-76
2022/09/14 03:29:26;;;;;;;;;;;14.80;99.90;;;;;;5095527;28;20079;-76
2022/09/14 03:31:51;;;;;;;;;;;14.70;99.90;;;;;;5098639;28;19912;-76
2022/09/14 03:34:17;;;;;;;;;;;14.70;99.90;;;;;;5106506;28;20227;-76
2022/09/14 03:36:42;;;;;;;;;;;14.70;99.90;;;;;;5098672;28;20337;-76
2022/09/14 03:39:08;;;;;;;;;;;14.80;99.90;;;;;;5111465;28;19922;-76
2022/09/14 03:41:33;;;;;;;;;;;14.80;99.90;;;;;;5111698;28;19951;-77
2022/09/14 03:43:59;;;;;;;;;;;14.80;99.90;;;;;;5115307;28;20326;-77
2022/09/14 03:46:25;;;;;;;;;;;14.80;99.90;;;;;;5100156;28;20451;-76
2022/09/14 03:48:51;;;;;;;;;;;14.80;99.90;;;;;;5097228;28;20223;-76
2022/09/14 03:51:16;;;;;;;;;;;14.80;99.90;;;;;;5090473;28;20409;-76
2022/09/14 03:53:43;;;;;;;;;;;14.90;99.90;;;;;;5102129;28;20006;-77
2022/09/14 03:56:17;;;;;;;;;;;14.90;99.90;;;;;;5102614;28;19962;-76
2022/09/14 03:58:43;;;;;;;;;;;14.90;99.90;;;;;;5101724;28;19931;-76
2022/09/14 04:01:10;;;;;;;;;;;14.90;99.90;;;;;;5092324;28;19912;-76
2022/09/14 04:03:36;;;;;;;;;;;14.90;99.90;;;;;;5116237;28;20006;-76
2022/09/14 04:06:04;;;;;;;;;;;14.80;99.90;;;;;;5103408;28;20007;-76
2022/09/14 04:08:30;;;;;;;;;;;14.70;99.90;;;;;;5112209;28;19922;-77
2022/09/14 04:10:55;;;;;;;;;;;14.70;99.90;;;;;;5097599;28;19912;-76
2022/09/14 04:13:21;;;;;;;;;;;14.60;99.90;;;;;;5086862;28;20508;-76
2022/09/14 04:15:59;;;;;;;;;;;14.60;99.90;;;;;;5090650;28;19912;-75
2022/09/14 04:18:25;;;;;;;;;;;14.60;99.90;;;;;;5103899;28;19961;-75
2022/09/14 04:20:57;;;;;;;;;;;14.50;99.90;;;;;;5098092;28;19927;-75
2022/09/14 04:23:24;;;;;;;;;;;14.50;99.90;;;;;;5105486;28;19998;-76
2022/09/14 04:25:50;;;;;;;;;;;14.40;99.90;;;;;;5106009;28;19916;-76
2022/09/14 04:28:15;;;;;;;;;;;14.40;99.90;;;;;;5083353;28;20007;-76
2022/09/14 04:30:41;;;;;;;;;;;14.50;99.90;;;;;;5102327;28;19912;-76
2022/09/14 04:33:07;;;;;;;;;;;14.50;99.90;;;;;;5099027;28;19919;-76
2022/09/14 04:35:32;;;;;;;;;;;14.50;99.90;;;;;;5106956;28;19916;-76
2022/09/14 04:37:58;;;;;;;;;;;14.50;99.90;;;;;;5104223;28;19936;-76
2022/09/14 04:40:23;;;;;;;;;;;14.50;99.90;;;;;;5102953;28;19916;-76
2022/09/14 04:42:49;;;;;;;;;;;14.40;99.90;;;;;;5106316;28;19916;-77
2022/09/14 04:45:14;;;;;;;;;;;14.40;99.90;;;;;;5085784;28;19955;-77
2022/09/14 04:47:40;;;;;;;;;;;14.40;99.90;;;;;;5086804;28;19916;-76
2022/09/14 04:50:06;;;;;;;;;;;14.50;99.90;;;;;;5106578;28;19920;-76
2022/09/14 04:52:31;;;;;;;;;;;14.40;99.90;;;;;;5098159;28;19923;-77
2022/09/14 04:54:57;;;;;;;;;;;14.40;99.90;;;;;;5108555;28;19916;-77
2022/09/14 04:57:22;;;;;;;;;;;14.40;99.90;;;;;;5105486;28;21394;-77
2022/09/14 04:59:48;;;;;;;;;;;14.40;99.90;;;;;;5078618;28;19912;-77
2022/09/14 05:02:13;;;;;;;;;;;14.40;99.90;;;;;;5102901;28;19911;-76
2022/09/14 05:04:39;;;;;;;;;;;14.40;99.90;;;;;;5109474;28;19943;-76
2022/09/14 05:07:04;;;;;;;;;;;14.40;99.90;;;;;;5101883;28;19923;-76
2022/09/14 05:09:30;;;;;;;;;;;14.40;99.90;;;;;;5107571;28;19912;-76
2022/09/14 05:11:55;;;;;;;;;;;14.40;99.90;;;;;;5104669;28;19912;-76
2022/09/14 05:14:21;;;;;;;;;;;14.40;99.90;;;;;;5106074;28;19999;-76
2022/09/14 05:16:46;;;;;;;;;;;14.40;99.90;;;;;;5107482;27;19924;-76
2022/09/14 05:19:16;;;;;;;;;;;14.40;99.90;;;;;;5106272;28;20023;-76
2022/09/14 05:21:42;;;;;;;;;;;14.40;99.90;;;;;;5092039;28;19912;-76
2022/09/14 05:24:13;;;;;;;;;;;14.40;99.90;;;;;;5102370;28;19916;-76
2022/09/14 05:26:39;;;;;;;;;;;14.40;99.90;;;;;;5108915;28;19916;-75
2022/09/14 05:29:05;;;;;;;;;;;14.40;99.90;;;;;;5107103;28;19915;-76
2022/09/14 05:31:31;;;;;;;;;;;14.30;99.90;;;;;;5089655;28;20192;-76
2022/09/14 05:33:57;;;;;;;;;;;14.40;99.90;;;;;;5083679;28;19970;-75
2022/09/14 05:36:23;;;;;;;;;;;14.40;99.90;;;;;;5106453;28;19916;-76
2022/09/14 05:38:48;;;;;;;;;;;14.40;99.90;;;;;;5101512;28;19911;-76
2022/09/14 05:41:14;;;;;;;;;;;14.40;99.90;;;;;;5080921;28;19919;-77
2022/09/14 05:43:40;;;;;;;;;;;14.50;99.90;;;;;;5088363;28;19912;-77
2022/09/14 05:46:08;;;;;;;;;;;14.50;99.90;;;;;;5109185;28;19914;-76
2022/09/14 05:48:35;;;;;;;;;;;14.50;99.90;;;;;;5085103;28;19916;-77
2022/09/14 05:51:03;;;;;;;;;;;14.50;99.90;;;;;;5110607;27;20716;-77
2022/09/14 05:53:28;;;;;;;;;;;14.50;99.90;;;;;;5086614;28;19914;-76
2022/09/14 05:56:00;;;;;;;;;;;14.50;99.90;;;;;;5107184;28;20393;-77
2022/09/14 05:58:26;;;;;;;;;;;14.60;99.90;;;;;;5102163;28;19916;-77
2022/09/14 06:00:51;;;;;;;;;;;14.60;99.90;;;;;;5101773;28;20314;-77
2022/09/14 06:03:17;;;;;;;;;;;14.60;99.90;;;;;;5085397;28;19912;-76
2022/09/14 06:05:43;;;;;;;;;;;14.70;99.90;;;;;;5081545;28;19920;-77
2022/09/14 06:08:08;;;;;;;;;;;14.70;99.90;;;;;;5104605;28;19908;-77
2022/09/14 06:10:34;;;;;;;;;;;14.70;99.90;;;;;;5108756;28;19951;-77
2022/09/14 06:12:59;;;;;;;;;;;14.70;99.90;;;;;;5072455;28;20010;-76
2022/09/14 06:15:25;;;;;;;;;;;14.70;99.90;;;;;;5092622;28;19995;-77
2022/09/14 06:17:50;;;;;;;;;;;14.80;99.90;;;;;;5101845;28;20003;-75
2022/09/14 06:20:17;;;;;;;;;;;14.80;99.90;;;;;;5085914;28;20003;-76
2022/09/14 06:22:43;;;;;;;;;;;14.80;99.90;;;;;;5106152;28;19912;-76
2022/09/14 06:25:10;;;;;;;;;;;15.00;99.90;;;;;;5110386;28;19912;-76
2022/09/14 06:27:36;;;;;;;;;;;15.00;99.90;;;;;;5109629;28;19915;-77
2022/09/14 06:30:02;;;;;;;;;;;14.90;99.90;;;;;;5102283;28;19912;-76
2022/09/14 06:32:29;;;;;;;;;;;15.00;99.90;;;;;;5079759;28;19950;-77
2022/09/14 06:34:54;;;;;;;;;;;15.00;99.90;;;;;;5109885;28;19927;-77
2022/09/14 06:37:20;;;;;;;;;;;15.10;99.90;;;;;;5114268;28;19984;-76
2022/09/14 06:39:45;;;;;;;;;;;15.10;99.90;;;;;;5105497;28;19911;-75
2022/09/14 06:42:11;;;;;;;;;;;15.10;99.90;;;;;;5108753;28;19933;-76
2022/09/14 06:44:36;;;;;;;;;;;15.10;99.90;;;;;;5111627;28;19961;-76
2022/09/14 06:47:02;;;;;;;;;;;15.10;99.90;;;;;;5082105;28;19920;-75
2022/09/14 06:49:28;;;;;;;;;;;15.10;99.90;;;;;;5108242;28;19961;-76
2022/09/14 06:51:56;;;;;;;;;;;15.10;99.90;;;;;;5093681;28;19961;-77
2022/09/14 06:54:22;;;;;;;;;;;15.10;99.90;;;;;;5097719;28;19908;-77
2022/09/14 06:56:48;;;;;;;;;;;15.20;99.90;;;;;;5097611;28;19916;-76
2022/09/14 06:59:14;;;;;;;;;;;15.20;99.90;;;;;;5097863;28;19991;-75
2022/09/14 07:01:40;;;;;;;;;;;15.20;99.90;;;;;;5100823;28;19916;-75
2022/09/14 07:04:06;;;;;;;;;;;15.20;99.90;;;;;;5098812;28;19950;-76
2022/09/14 07:06:37;;;;;;;;;;;15.20;99.90;;;;;;5084602;28;20296;-75
2022/09/14 07:09:03;;;;;;;;;;;15.30;99.90;;;;;;5101958;28;19923;-75
2022/09/14 07:11:29;;;;;;;;;;;15.30;99.90;;;;;;5081561;28;20006;-76
2022/09/14 07:13:58;;;;;;;;;;;15.50;99.90;;;;;;5111271;28;20379;-77
2022/09/14 07:16:24;;;;;;;;;;;15.50;99.90;;;;;;5088497;28;19920;-76
2022/09/14 07:18:56;;;;;;;;;;;15.60;99.90;;;;;;5104187;28;20369;-76
2022/09/14 07:21:22;;;;;;;;;;;15.70;99.90;;;;;;5087288;28;19934;-75
2022/09/14 07:23:48;;;;;;;;;;;15.80;99.90;;;;;;5104537;28;20002;-75
2022/09/14 07:26:16;;;;;;;;;;;15.80;99.90;;;;;;5086219;28;20358;-74
2022/09/14 07:28:43;;;;;;;;;;;15.90;99.90;;;;;;5103019;28;19915;-76
2022/09/14 07:31:16;;;;;;;;;;;15.90;99.90;;;;;;5105801;28;20199;-75
2022/09/14 07:33:41;;;;;;;;;;;16.10;99.90;;;;;;5105131;28;19908;-76
2022/09/14 07:36:08;;;;;;;;;;;16.10;99.90;;;;;;5091355;28;20210;-75
2022/09/14 07:38:34;;;;;;;;;;;16.20;99.90;;;;;;5098911;28;19927;-75
2022/09/14 07:41:00;;;;;;;;;;;16.20;99.90;;;;;;5080119;28;19916;-75
2022/09/14 07:43:26;;;;;;;;;;;16.30;99.90;;;;;;5077126;28;19908;-76
2022/09/14 07:45:51;;;;;;;;;;;16.40;99.90;;;;;;5095470;28;19939;-75
2022/09/14 07:48:17;;;;;;;;;;;16.50;99.90;;;;;;5104061;28;19915;-76
2022/09/14 07:50:42;;;;;;;;;;;16.60;99.90;;;;;;5078860;28;19923;-74
2022/09/14 07:53:08;;;;;;;;;;;16.70;99.90;;;;;;5107202;28;19920;-75
2022/09/14 07:55:37;;;;;;;;;;;16.70;99.90;;;;;;5099652;28;19918;-75
2022/09/14 07:58:02;;;;;;;;;;;16.70;99.90;;;;;;5104538;28;20302;-75
2022/09/14 08:00:28;;;;;;;;;;;16.80;99.90;;;;;;5108102;28;19920;-75
2022/09/14 08:02:56;;;;;;;;;;;16.80;99.90;;;;;;5100428;28;19915;-75
2022/09/14 08:05:22;;;;;;;;;;;16.80;99.90;;;;;;5099297;28;19923;-75
2022/09/14 08:07:52;;;;;;;;;;;16.80;99.90;;;;;;5107150;28;19916;-75
2022/09/14 08:10:17;;;;;;;;;;;16.70;99.90;;;;;;5104710;28;19918;-74
2022/09/14 08:12:43;;;;;;;;;;;16.80;99.90;;;;;;5100490;28;20229;-74
2022/09/14 08:15:09;;;;;;;;;;;16.80;99.90;;;;;;5108994;28;20372;-75
2022/09/14 08:17:34;;;;;;;;;;;16.90;99.90;;;;;;5102196;28;19935;-76
2022/09/14 08:20:00;;;;;;;;;;;17.00;99.90;;;;;;5029317;28;1900767;-74
2022/09/14 08:22:26;;;;;;;;;;;16.90;99.90;;;;;;5083208;28;19935;-75
2022/09/14 08:24:52;;;;;;;;;;;17.00;99.90;;;;;;5083907;28;19920;-75
2022/09/14 08:27:17;;;;;;;;;;;17.10;99.90;;;;;;5096366;28;19938;-75
2022/09/14 08:29:43;;;;;;;;;;;17.00;99.90;;;;;;5107321;27;19911;-75
2022/09/14 08:32:10;;;;;;;;;;;17.00;99.90;;;;;;5101467;28;19916;-75
2022/09/14 08:34:35;;;;;;;;;;;17.00;99.90;;;;;;5089512;28;19916;-74
2022/09/14 08:37:01;;;;;;;;;;;16.90;99.90;;;;;;5104536;28;19916;-75
2022/09/14 08:39:27;;;;;;;;;;;16.80;99.90;;;;;;5101367;28;19912;-74
2022/09/14 08:41:54;;;;;;;;;;;16.90;99.90;;;;;;5090275;28;20281;-74
2022/09/14 08:44:22;;;;;;;;;;;16.90;99.90;;;;;;5095047;28;19919;-75
2022/09/14 08:46:51;;;;;;;;;;;16.90;99.90;;;;;;5101349;28;19995;-74
2022/09/14 08:49:20;;;;;;;;;;;17.00;99.90;;;;;;5106079;28;19915;-75
2022/09/14 08:51:45;;;;;;;;;;;17.00;99.90;;;;;;5095525;28;19915;-74
2022/09/14 08:54:11;;;;;;;;;;;17.10;99.90;;;;;;5094736;28;19908;-75
2022/09/14 08:56:39;;;;;;;;;;;17.20;99.90;;;;;;5096227;28;20222;-74
2022/09/14 08:59:14;;;;;;;;;;;17.20;99.90;;;;;;5103753;28;19984;-74
2022/09/14 09:01:46;;;;;;;;;;;17.20;99.90;;;;;;5097441;28;19923;-74
2022/09/14 09:04:28;;;;;;;;;;;17.20;99.90;;;;;;5076542;28;19912;-74
2022/09/14 09:07:04;;;;;;;;;;;17.30;99.90;;;;;;5096453;28;19919;-74
2022/09/14 09:09:39;;;;;;;;;;;17.30;99.90;;;;;;5108274;28;20192;-74
2022/09/14 09:12:05;;;;;;;;;;;17.30;99.90;;;;;;5111222;28;20262;-74
2022/09/14 09:14:34;;;;;;;;;;;17.40;99.90;;;;;;5107591;28;20013;-74
2022/09/14 09:17:03;;;;;;;;;;;17.30;99.90;;;;;;5109691;28;19929;-75
2022/09/14 09:19:33;;;;;;;;;;;17.30;99.90;;;;;;5108192;28;20007;-74
2022/09/14 09:22:02;;;;;;;;;;;17.50;99.90;;;;;;5087187;28;20386;-74
2022/09/14 09:24:31;;;;;;;;;;;17.40;99.90;;;;;;5094553;28;19935;-75
2022/09/14 09:26:56;;;;;;;;;;;17.40;99.90;;;;;;5100416;28;19917;-75
2022/09/14 09:29:22;;;;;;;;;;;17.40;99.90;;;;;;5074516;28;19924;-74
2022/09/14 09:31:49;;;;;;;;;;;17.50;99.90;;;;;;5102896;28;19916;-74
2022/09/14 09:34:16;;;;;;;;;;;17.40;99.90;;;;;;5102048;28;20218;-74
2022/09/14 09:36:44;;;;;;;;;;;17.50;99.90;;;;;;5100976;28;19937;-74
2022/09/14 09:39:11;;;;;;;;;;;17.50;99.90;;;;;;5089281;28;19908;-73
2022/09/14 09:41:42;;;;;;;;;;;17.50;99.90;;;;;;5102975;28;20010;-74
2022/09/14 09:44:09;;;;;;;;;;;17.40;99.90;;;;;;5089683;28;19912;-74
2022/09/14 09:46:39;;;;;;;;;;;17.50;99.90;;;;;;5077070;28;20018;-74
2022/09/14 09:49:23;;;;;;;;;;;17.40;99.90;;;;;;5081625;28;20195;-74
2022/09/14 09:51:50;;;;;;;;;;;17.40;99.90;;;;;;5097995;28;19912;-74
2022/09/14 09:54:15;;;;;;;;;;;17.40;99.90;;;;;;5095101;28;19952;-73
2022/09/14 09:56:58;;;;;;;;;;;17.40;99.90;;;;;;5103253;28;20303;-73
2022/09/14 09:59:28;;;;;;;;;;;17.50;99.90;;;;;;5106859;28;19912;-73
2022/09/14 10:01:55;;;;;;;;;;;17.50;99.90;;;;;;5098745;28;19940;-74
2022/09/14 10:04:26;;;;;;;;;;;17.50;99.90;;;;;;5103306;28;20003;-73
2022/09/14 10:06:53;;;;;;;;;;;17.50;99.90;;;;;;5102924;28;19915;-73
2022/09/14 10:09:23;;;;;;;;;;;17.60;99.90;;;;;;5076625;28;19943;-73
2022/09/14 10:12:02;;;;;;;;;;;17.70;99.90;;;;;;5076568;28;19926;-74
2022/09/14 10:14:27;;;;;;;;;;;17.80;99.90;;;;;;5079307;28;20100;-73
2022/09/14 10:17:02;;;;;;;;;;;17.80;99.90;;;;;;5096231;28;20019;-73
2022/09/14 10:19:29;;;;;;;;;;;17.80;99.90;;;;;;5095096;28;19927;-74
2022/09/14 10:22:13;;;;;;;;;;;17.70;99.90;;;;;;5097369;28;19954;-73
2022/09/14 10:24:39;;;;;;;;;;;17.70;99.90;;;;;;5098187;28;19916;-73
2022/09/14 10:27:23;;;;;;;;;;;17.70;99.90;;;;;;5103957;28;21151;-73
2022/09/14 10:29:51;;;;;;;;;;;17.60;99.90;;;;;;5087884;28;20307;-73
2022/09/14 10:32:22;;;;;;;;;;;17.60;99.90;;;;;;5108251;28;20306;-74
2022/09/14 10:34:50;;;;;;;;;;;17.70;99.90;;;;;;5104589;28;19915;-74
2022/09/14 10:37:28;;;;;;;;;;;17.60;99.90;;;;;;5105517;28;20302;-73
2022/09/14 10:40:15;;;;;;;;;;;17.70;99.90;;;;;;5083603;28;19912;-73
2022/09/14 10:43:01;;;;;;;;;;;17.70;99.90;;;;;;5088402;28;19916;-74
2022/09/14 10:45:29;;;;;;;;;;;17.80;99.90;;;;;;5101039;28;19919;-73
2022/09/14 10:48:30;;;;;;;;;;;18.00;99.90;;;;;;5086311;28;20050;-74
2022/09/14 10:51:14;;;;;;;;;;;18.20;99.90;;;;;;5008100;28;20917;-74
2022/09/14 10:54:02;;;;;;;;;;;18.10;99.90;;;;;;5091198;28;19924;-74
2022/09/14 10:56:51;;;;;;;;;;;18.30;99.90;;;;;;5052893;28;19916;-74
2022/09/14 10:59:19;;;;;;;;;;;18.40;99.90;;;;;;5098313;28;20302;-73
2022/09/14 11:01:46;;;;;;;;;;;18.60;99.90;;;;;;5101195;28;20035;-73
2022/09/14 11:04:17;;;;;;;;;;;18.70;99.90;;;;;;5082277;28;20361;-74
2022/09/14 11:06:42;;;;;;;;;;;18.90;99.90;;;;;;5105876;28;19923;-74
2022/09/14 11:09:15;;;;;;;;;;;19.10;99.90;;;;;;5084118;28;19915;-75
2022/09/14 11:11:44;;;;;;;;;;;19.30;99.90;;;;;;5108122;28;20256;-74
2022/09/14 11:14:12;;;;;;;;;;;19.40;99.90;;;;;;5107069;28;19920;-73
2022/09/14 11:16:49;;;;;;;;;;;19.40;99.90;;;;;;5109804;28;19919;-72
2022/09/14 11:19:21;;;;;;;;;;;19.30;99.90;;;;;;5087507;28;19924;-74
2022/09/14 11:21:53;;;;;;;;;;;19.20;99.90;;;;;;5084420;28;20196;-73
2022/09/14 11:24:45;;;;;;;;;;;19.20;99.90;;;;;;5091572;28;19912;-73
2022/09/14 11:27:22;;;;;;;;;;;19.60;99.90;;;;;;5034014;28;20328;-74
2022/09/14 11:29:54;;;;;;;;;;;20.10;99.90;;;;;;5047074;28;20274;-74
2022/09/14 11:32:29;;;;;;;;;;;20.40;99.90;;;;;;5045153;28;19964;-74
2022/09/14 11:34:55;;;;;;;;;;;20.60;99.90;;;;;;5048496;28;19913;-74
2022/09/14 11:37:24;;;;;;;;;;;20.80;99.90;;;;;;5051946;28;20308;-74
2022/09/14 11:39:57;;;;;;;;;;;20.90;99.90;;;;;;5034161;28;19912;-74
2022/09/14 11:42:26;;;;;;;;;;;21.10;99.90;;;;;;5037617;28;19921;-74
2022/09/14 11:44:57;;;;;;;;;;;21.10;99.90;;;;;;5023691;28;19921;-74
2022/09/14 11:47:23;;;;;;;;;;;20.80;99.90;;;;;;5051958;28;19919;-76
2022/09/14 11:49:55;;;;;;;;;;;20.90;99.90;;;;;;5043355;28;20309;-75
2022/09/14 11:52:22;;;;;;;;;;;20.90;99.90;;;;;;5042492;28;19917;-74
2022/09/14 11:54:48;;;;;;;;;;;20.90;99.90;;;;;;5031209;28;19920;-74
2022/09/14 11:57:19;;;;;;;;;;;21.10;99.90;;;;;;5039619;28;19933;-73
2022/09/14 11:59:52;;;;;;;;;;;21.30;99.90;;;;;;5040772;28;20605;-76
2022/09/14 12:02:23;;;;;;;;;;;21.10;99.90;;;;;;5035702;28;19951;-74
2022/09/14 12:05:08;;;;;;;;;;;20.80;99.90;;;;;;5073332;28;19916;-75
2022/09/14 12:07:45;;;;;;;;;;;20.50;99.90;;;;;;5086826;28;20584;-74
2022/09/14 12:10:14;;;;;;;;;;;20.40;99.90;;;;;;5081645;28;20290;-74
2022/09/14 12:12:41;;;;;;;;;;;20.50;99.90;;;;;;5076933;28;19920;-73
2022/09/14 12:15:12;;;;;;;;;;;20.50;99.90;;;;;;5081179;28;19908;-74
2022/09/14 12:17:38;;;;;;;;;;;20.40;99.90;;;;;;5089528;28;19921;-74
2022/09/14 12:20:23;;;;;;;;;;;20.40;99.90;;;;;;5099338;28;20454;-73
2022/09/14 12:22:48;;;;;;;;;;;20.30;99.90;;;;;;5092333;28;20341;-75
2022/09/14 12:25:16;;;;;;;;;;;20.30;99.90;;;;;;5084996;28;19927;-75
2022/09/14 12:27:43;;;;;;;;;;;20.60;99.90;;;;;;5101806;28;20298;-74
2022/09/14 12:30:27;;;;;;;;;;;20.40;99.90;;;;;;5098268;28;19934;-73
2022/09/14 12:32:53;;;;;;;;;;;20.40;99.90;;;;;;5098882;28;20379;-73
2022/09/14 12:35:37;;;;;;;;;;;20.30;99.90;;;;;;5095139;28;19990;-74
2022/09/14 12:38:21;;;;;;;;;;;20.10;99.90;;;;;;5102407;28;19949;-74
2022/09/14 12:40:47;;;;;;;;;;;20.20;99.90;;;;;;5095038;28;19909;-74
2022/09/14 12:43:35;;;;;;;;;;;20.40;99.90;;;;;;5100503;28;19916;-74
2022/09/14 12:46:04;;;;;;;;;;;20.40;99.90;;;;;;5096043;28;19980;-74
2022/09/14 12:48:49;;;;;;;;;;;20.30;99.90;;;;;;5080713;28;20218;-74
2022/09/14 12:51:27;;;;;;;;;;;20.30;99.90;;;;;;5081797;28;20229;-74
2022/09/14 12:54:05;;;;;;;;;;;20.50;99.90;;;;;;5103962;28;19920;-76
2022/09/14 12:56:42;;;;;;;;;;;20.80;99.90;;;;;;5094900;28;19912;-74
2022/09/14 12:59:15;;;;;;;;;;;21.10;99.90;;;;;;5102333;28;19923;-74
2022/09/14 13:02:07;;;;;;;;;;;21.10;99.90;;;;;;5107487;28;19912;-74
2022/09/14 13:04:35;;;;;;;;;;;20.80;99.90;;;;;;5099364;28;19950;-74
2022/09/14 13:07:03;;;;;;;;;;;20.70;99.90;;;;;;5108539;28;19915;-74
2022/09/14 13:09:30;;;;;;;;;;;20.70;99.90;;;;;;5097605;28;19942;-74
2022/09/14 13:12:01;;;;;;;;;;;20.80;99.90;;;;;;5092174;28;20335;-73
2022/09/14 13:14:29;;;;;;;;;;;21.20;99.90;;;;;;5102313;28;19919;-73
2022/09/14 13:16:56;;;;;;;;;;;21.10;99.90;;;;;;5102842;28;19962;-73
2022/09/14 13:19:29;;;;;;;;;;;20.90;99.90;;;;;;5105106;27;19928;-75
2022/09/14 13:21:56;;;;;;;;;;;20.70;99.90;;;;;;5095164;28;19912;-74
2022/09/14 13:24:42;;;;;;;;;;;20.70;99.90;;;;;;5098440;28;19912;-74
2022/09/14 13:27:17;;;;;;;;;;;20.80;99.90;;;;;;5093155;28;20184;-74
2022/09/14 13:29:42;;;;;;;;;;;20.80;99.90;;;;;;5082934;28;19926;-73
2022/09/14 13:32:13;;;;;;;;;;;20.80;99.90;;;;;;5093739;28;20290;-73
2022/09/14 13:34:38;;;;;;;;;;;20.60;99.90;;;;;;5079240;28;19912;-74
2022/09/14 13:37:05;;;;;;;;;;;20.70;99.90;;;;;;5093340;28;20204;-74
2022/09/14 13:39:36;;;;;;;;;;;20.70;99.90;;;;;;5098897;28;20290;-73
2022/09/14 13:42:02;;;;;;;;;;;20.60;99.90;;;;;;5094482;28;20326;-75
2022/09/14 13:44:35;;;;;;;;;;;20.90;99.90;;;;;;5067778;28;19920;-74
2022/09/14 13:47:04;;;;;;;;;;;21.20;99.90;;;;;;5087403;28;20211;-72
2022/09/14 13:49:30;;;;;;;;;;;21.30;99.90;;;;;;5102480;28;19965;-74
2022/09/14 13:52:14;;;;;;;;;;;21.20;99.90;;;;;;5095020;28;19920;-74
2022/09/14 13:54:40;;;;;;;;;;;21.50;99.90;;;;;;5081645;28;19916;-74
2022/09/14 13:57:15;;;;;;;;;;;21.50;99.90;;;;;;5096327;28;19969;-74
2022/09/14 14:00:00;;;;;;;;;;;21.40;99.90;;;;;;5093316;28;19912;-74
2022/09/14 14:02:26;;;;;;;;;;;21.40;99.90;;;;;;5094201;28;20295;-74
2022/09/14 14:04:52;;;;;;;;;;;21.20;99.90;;;;;;5078642;28;19967;-73
2022/09/14 14:07:20;;;;;;;;;;;21.00;99.90;;;;;;5097729;28;20004;-74
2022/09/14 14:09:51;;;;;;;;;;;20.80;99.90;;;;;;5103322;28;19915;-74
2022/09/14 14:12:22;;;;;;;;;;;20.70;99.90;;;;;;5098985;28;19907;-73
2022/09/14 14:14:52;;;;;;;;;;;20.70;99.90;;;;;;5078173;28;19916;-74
2022/09/14 14:17:20;;;;;;;;;;;20.60;99.90;;;;;;5081140;28;19920;-73
2022/09/14 14:19:47;;;;;;;;;;;20.40;99.90;;;;;;5105869;28;20310;-74
2022/09/14 14:22:13;;;;;;;;;;;20.30;99.90;;;;;;5095762;28;19920;-74
2022/09/14 14:24:39;;;;;;;;;;;20.20;99.90;;;;;;5096045;28;20030;-75
2022/09/14 14:27:05;;;;;;;;;;;20.20;99.90;;;;;;5097513;28;19975;-74